sensor_id;sensor_type;location;lat;lon;timestamp;pressure;altitude;pressure_sealevel;temperature;humidity
64158;BME280;50449;51.528;5.076;2023-01-31T00:01:59;102421.09;;;6.80;68.69
64158;BME280;50449;51.528;5.076;2023-01-31T00:04:24;102413.22;;;6.79;68.80
64158;BME280;50449;51.528;5.076;2023-01-31T00:06:49;102411.53;;;6.78;68.74
64158;BME280;50449;51.528;5.076;2023-01-31T00:09:15;102426.16;;;6.75;68.89
64158;BME280;50449;51.528;5.076;2023-01-31T00:11:40;102426.34;;;6.74;68.67
64158;BME280;50449;51.528;5.076;2023-01-31T00:14:07;102417.47;;;6.73;68.83
64158;BME280;50449;51.528;5.076;2023-01-31T00:16:33;102421.16;;;6.72;68.80
64158;BME280;50449;51.528;5.076;2023-01-31T00:18:58;102419.50;;;6.71;68.77
64158;BME280;50449;51.528;5.076;2023-01-31T00:21:27;102418.00;;;6.68;68.87
64158;BME280;50449;51.528;5.076;2023-01-31T00:23:54;102427.91;;;6.68;68.70
64158;BME280;50449;51.528;5.076;2023-01-31T00:26:20;102425.38;;;6.66;68.74
64158;BME280;50449;51.528;5.076;2023-01-31T00:28:47;102421.88;;;6.66;68.67
64158;BME280;50449;51.528;5.076;2023-01-31T00:31:15;102424.72;;;6.64;68.88
64158;BME280;50449;51.528;5.076;2023-01-31T00:33:42;102424.72;;;6.64;68.97
64158;BME280;50449;51.528;5.076;2023-01-31T00:36:13;102425.75;;;6.63;68.52
64158;BME280;50449;51.528;5.076;2023-01-31T00:38:39;102416.00;;;6.62;68.54
64158;BME280;50449;51.528;5.076;2023-01-31T00:41:07;102411.81;;;6.60;68.69
64158;BME280;50449;51.528;5.076;2023-01-31T00:43:33;102410.97;;;6.59;68.73
64158;BME280;50449;51.528;5.076;2023-01-31T00:45:59;102410.31;;;6.57;68.78
64158;BME280;50449;51.528;5.076;2023-01-31T00:48:24;102405.81;;;6.58;68.92
64158;BME280;50449;51.528;5.076;2023-01-31T00:50:50;102397.09;;;6.56;68.73
64158;BME280;50449;51.528;5.076;2023-01-31T00:53:15;102400.75;;;6.55;68.65
64158;BME280;50449;51.528;5.076;2023-01-31T00:55:42;102399.09;;;6.54;68.62
64158;BME280;50449;51.528;5.076;2023-01-31T00:58:08;102387.53;;;6.53;68.54
64158;BME280;50449;51.528;5.076;2023-01-31T01:00:33;102394.91;;;6.51;68.58
64158;BME280;50449;51.528;5.076;2023-01-31T01:02:59;102390.38;;;6.52;68.71
64158;BME280;50449;51.528;5.076;2023-01-31T01:05:24;102396.09;;;6.48;68.63
64158;BME280;50449;51.528;5.076;2023-01-31T01:07:49;102386.34;;;6.47;68.72
64158;BME280;50449;51.528;5.076;2023-01-31T01:10:15;102392.75;;;6.46;68.58
64158;BME280;50449;51.528;5.076;2023-01-31T01:12:40;102385.72;;;6.45;68.59
64158;BME280;50449;51.528;5.076;2023-01-31T01:15:06;102368.75;;;6.45;68.48
64158;BME280;50449;51.528;5.076;2023-01-31T01:17:32;102370.81;;;6.43;68.51
64158;BME280;50449;51.528;5.076;2023-01-31T01:19:57;102366.44;;;6.42;68.68
64158;BME280;50449;51.528;5.076;2023-01-31T01:22:27;102370.13;;;6.41;68.71
64158;BME280;50449;51.528;5.076;2023-01-31T01:24:53;102369.31;;;6.40;68.59
64158;BME280;50449;51.528;5.076;2023-01-31T01:27:18;102367.63;;;6.39;68.76
64158;BME280;50449;51.528;5.076;2023-01-31T01:29:44;102357.91;;;6.38;68.65
64158;BME280;50449;51.528;5.076;2023-01-31T01:32:09;102355.38;;;6.37;68.72
64158;BME280;50449;51.528;5.076;2023-01-31T01:34:35;102359.91;;;6.36;68.77
64158;BME280;50449;51.528;5.076;2023-01-31T01:37:01;102361.78;;;6.36;68.52
64158;BME280;50449;51.528;5.076;2023-01-31T01:39:34;102360.09;;;6.35;68.56
64158;BME280;50449;51.528;5.076;2023-01-31T01:41:59;102356.75;;;6.33;68.64
64158;BME280;50449;51.528;5.076;2023-01-31T01:47:16;102340.81;;;6.31;68.60
64158;BME280;50449;51.528;5.076;2023-01-31T01:49:44;102341.84;;;6.30;68.83
64158;BME280;50449;51.528;5.076;2023-01-31T01:52:11;102338.50;;;6.28;68.83
64158;BME280;50449;51.528;5.076;2023-01-31T01:54:46;102334.31;;;6.25;68.65
64158;BME280;50449;51.528;5.076;2023-01-31T01:57:12;102343.19;;;6.26;68.79
64158;BME280;50449;51.528;5.076;2023-01-31T01:59:48;102349.59;;;6.25;68.45
64158;BME280;50449;51.528;5.076;2023-01-31T02:02:16;102347.06;;;6.23;68.59
64158;BME280;50449;51.528;5.076;2023-01-31T02:04:45;102342.72;;;6.22;68.94
64158;BME280;50449;51.528;5.076;2023-01-31T02:07:11;102351.75;;;6.21;68.66
64158;BME280;50449;51.528;5.076;2023-01-31T02:09:55;102352.94;;;6.19;68.49
64158;BME280;50449;51.528;5.076;2023-01-31T02:12:23;102349.44;;;6.18;68.29
64158;BME280;50449;51.528;5.076;2023-01-31T02:14:48;102346.91;;;6.17;68.73
64158;BME280;50449;51.528;5.076;2023-01-31T02:17:17;102354.13;;;6.16;68.60
64158;BME280;50449;51.528;5.076;2023-01-31T02:39:07;102347.13;;;6.07;68.72
64158;BME280;50449;51.528;5.076;2023-01-31T02:41:40;102357.00;;;6.06;68.89
64158;BME280;50449;51.528;5.076;2023-01-31T02:44:22;102343.78;;;6.05;68.45
64158;BME280;50449;51.528;5.076;2023-01-31T02:52:48;102344.97;;;6.02;68.78
64158;BME280;50449;51.528;5.076;2023-01-31T02:58:31;102341.63;;;6.00;68.77
64158;BME280;50449;51.528;5.076;2023-01-31T03:01:00;102347.97;;;5.99;68.83
64158;BME280;50449;51.528;5.076;2023-01-31T03:03:31;102339.09;;;5.99;68.64
64158;BME280;50449;51.528;5.076;2023-01-31T03:09:02;102338.28;;;5.98;68.84
64158;BME280;50449;51.528;5.076;2023-01-31T03:14:51;102336.63;;;5.97;68.67
64158;BME280;50449;51.528;5.076;2023-01-31T03:20:09;102329.75;;;5.95;68.61
64158;BME280;50449;51.528;5.076;2023-01-31T03:22:43;102343.28;;;5.93;68.67
64158;BME280;50449;51.528;5.076;2023-01-31T03:25:12;102355.88;;;5.93;69.00
64158;BME280;50449;51.528;5.076;2023-01-31T03:27:42;102347.81;;;5.93;68.90
64158;BME280;50449;51.528;5.076;2023-01-31T03:30:24;102345.13;;;5.93;68.79
64158;BME280;50449;51.528;5.076;2023-01-31T03:32:56;102339.78;;;5.93;68.98
64158;BME280;50449;51.528;5.076;2023-01-31T03:35:27;102331.06;;;5.91;68.82
64158;BME280;50449;51.528;5.076;2023-01-31T03:37:59;102336.44;;;5.91;68.82
64158;BME280;50449;51.528;5.076;2023-01-31T03:40:40;102335.59;;;5.90;68.57
64158;BME280;50449;51.528;5.076;2023-01-31T03:43:17;102322.34;;;5.89;68.75
64158;BME280;50449;51.528;5.076;2023-01-31T03:45:48;102328.72;;;5.88;68.93
64158;BME280;50449;51.528;5.076;2023-01-31T03:48:17;102324.19;;;5.88;68.65
64158;BME280;50449;51.528;5.076;2023-01-31T03:50:50;102323.38;;;5.88;68.70
64158;BME280;50449;51.528;5.076;2023-01-31T03:56:08;102313.81;;;5.85;68.90
64158;BME280;50449;51.528;5.076;2023-01-31T03:58:40;102315.47;;;5.86;68.85
64158;BME280;50449;51.528;5.076;2023-01-31T04:01:08;102317.50;;;5.84;68.81
64158;BME280;50449;51.528;5.076;2023-01-31T04:06:01;102313.16;;;5.83;68.95
64158;BME280;50449;51.528;5.076;2023-01-31T04:08:26;102300.75;;;5.82;68.68
64158;BME280;50449;51.528;5.076;2023-01-31T04:10:53;102304.44;;;5.81;68.84
64158;BME280;50449;51.528;5.076;2023-01-31T04:13:19;102301.75;;;5.81;68.75
64158;BME280;50449;51.528;5.076;2023-01-31T04:15:46;102300.94;;;5.80;69.09
64158;BME280;50449;51.528;5.076;2023-01-31T04:18:11;102297.41;;;5.80;68.84
64158;BME280;50449;51.528;5.076;2023-01-31T04:20:37;102299.25;;;5.79;68.84
64158;BME280;50449;51.528;5.076;2023-01-31T04:23:03;102306.44;;;5.79;68.84
64158;BME280;50449;51.528;5.076;2023-01-31T04:25:28;102302.94;;;5.78;68.75
64158;BME280;50449;51.528;5.076;2023-01-31T04:27:53;102310.16;;;5.78;69.12
64158;BME280;50449;51.528;5.076;2023-01-31T04:30:19;102299.44;;;5.78;68.88
64158;BME280;50449;51.528;5.076;2023-01-31T04:32:44;102298.59;;;5.77;68.94
64158;BME280;50449;51.528;5.076;2023-01-31T04:35:09;102297.75;;;5.77;68.81
64158;BME280;50449;51.528;5.076;2023-01-31T04:37:36;102300.41;;;5.77;68.96
64158;BME280;50449;51.528;5.076;2023-01-31T04:40:01;102297.75;;;5.77;68.96
64158;BME280;50449;51.528;5.076;2023-01-31T04:42:27;102298.75;;;5.76;68.74
64158;BME280;50449;51.528;5.076;2023-01-31T04:44:52;102306.81;;;5.76;68.93
64158;BME280;50449;51.528;5.076;2023-01-31T04:47:18;102294.41;;;5.75;69.05
64158;BME280;50449;51.528;5.076;2023-01-31T04:49:43;102283.69;;;5.75;69.00
64158;BME280;50449;51.528;5.076;2023-01-31T04:52:09;102286.38;;;5.75;69.13
64158;BME280;50449;51.528;5.076;2023-01-31T04:54:35;102275.81;;;5.73;69.19
64158;BME280;50449;51.528;5.076;2023-01-31T04:57:01;102275.81;;;5.73;68.94
64158;BME280;50449;51.528;5.076;2023-01-31T04:59:26;102262.41;;;5.73;68.94
64158;BME280;50449;51.528;5.076;2023-01-31T05:01:52;102267.09;;;5.71;68.90
64158;BME280;50449;51.528;5.076;2023-01-31T05:04:17;102256.38;;;5.71;69.11
64158;BME280;50449;51.528;5.076;2023-01-31T05:06:43;102256.38;;;5.71;68.88
64158;BME280;50449;51.528;5.076;2023-01-31T05:09:08;102257.41;;;5.70;68.96
64158;BME280;50449;51.528;5.076;2023-01-31T05:11:35;102254.72;;;5.70;68.78
64158;BME280;50449;51.528;5.076;2023-01-31T05:14:01;102251.19;;;5.70;68.99
64158;BME280;50449;51.528;5.076;2023-01-31T05:16:26;102256.56;;;5.70;69.02
64158;BME280;50449;51.528;5.076;2023-01-31T05:18:52;102251.38;;;5.68;68.93
64158;BME280;50449;51.528;5.076;2023-01-31T05:21:17;102252.19;;;5.69;68.91
64158;BME280;50449;51.528;5.076;2023-01-31T05:23:43;102260.25;;;5.69;68.88
64158;BME280;50449;51.528;5.076;2023-01-31T05:26:08;102266.44;;;5.69;68.74
64158;BME280;50449;51.528;5.076;2023-01-31T05:28:34;102254.88;;;5.69;68.85
64158;BME280;50449;51.528;5.076;2023-01-31T05:31:05;102239.81;;;5.68;68.83
64158;BME280;50449;51.528;5.076;2023-01-31T05:33:31;102238.13;;;5.67;68.78
64158;BME280;50449;51.528;5.076;2023-01-31T05:35:58;102241.66;;;5.67;68.95
64158;BME280;50449;51.528;5.076;2023-01-31T05:38:24;102235.44;;;5.67;69.13
64158;BME280;50449;51.528;5.076;2023-01-31T05:40:49;102234.81;;;5.64;69.04
64158;BME280;50449;51.528;5.076;2023-01-31T05:43:15;102242.84;;;5.64;69.13
64158;BME280;50449;51.528;5.076;2023-01-31T05:45:40;102232.13;;;5.64;68.97
64158;BME280;50449;51.528;5.076;2023-01-31T05:48:06;102237.47;;;5.64;69.04
64158;BME280;50449;51.528;5.076;2023-01-31T05:50:32;102230.44;;;5.63;68.99
64158;BME280;50449;51.528;5.076;2023-01-31T05:52:58;102217.84;;;5.64;69.05
64158;BME280;50449;51.528;5.076;2023-01-31T05:55:25;102223.41;;;5.62;68.88
64158;BME280;50449;51.528;5.076;2023-01-31T05:57:51;102235.97;;;5.62;69.17
64158;BME280;50449;51.528;5.076;2023-01-31T06:00:17;102236.81;;;5.62;68.70
64158;BME280;50449;51.528;5.076;2023-01-31T06:02:43;102234.28;;;5.61;68.90
64158;BME280;50449;51.528;5.076;2023-01-31T06:05:09;102235.13;;;5.61;69.22
64158;BME280;50449;51.528;5.076;2023-01-31T06:07:35;102232.44;;;5.61;69.07
64158;BME280;50449;51.528;5.076;2023-01-31T06:10:00;102223.56;;;5.61;68.94
64158;BME280;50449;51.528;5.076;2023-01-31T06:12:26;102220.06;;;5.60;68.97
64158;BME280;50449;51.528;5.076;2023-01-31T06:14:53;102220.06;;;5.60;69.10
64158;BME280;50449;51.528;5.076;2023-01-31T06:17:18;102221.09;;;5.59;69.03
64158;BME280;50449;51.528;5.076;2023-01-31T06:19:43;102229.13;;;5.59;69.11
64158;BME280;50449;51.528;5.076;2023-01-31T06:22:09;102223.75;;;5.59;69.11
64158;BME280;50449;51.528;5.076;2023-01-31T06:24:34;102226.44;;;5.59;68.81
64158;BME280;50449;51.528;5.076;2023-01-31T06:27:00;102227.44;;;5.58;69.11
64158;BME280;50449;51.528;5.076;2023-01-31T06:29:25;102227.44;;;5.58;69.18
64158;BME280;50449;51.528;5.076;2023-01-31T06:31:50;102214.03;;;5.58;68.97
64158;BME280;50449;51.528;5.076;2023-01-31T06:34:18;102215.88;;;5.58;68.87
64158;BME280;50449;51.528;5.076;2023-01-31T06:36:43;102215.06;;;5.57;69.07
64158;BME280;50449;51.528;5.076;2023-01-31T06:39:10;102222.06;;;5.58;68.99
64158;BME280;50449;51.528;5.076;2023-01-31T06:41:35;102216.91;;;5.57;69.12
64158;BME280;50449;51.528;5.076;2023-01-31T06:44:01;102215.06;;;5.57;69.21
64158;BME280;50449;51.528;5.076;2023-01-31T06:46:26;102211.53;;;5.57;69.08
64158;BME280;50449;51.528;5.076;2023-01-31T06:48:52;102208.00;;;5.56;69.05
64158;BME280;50449;51.528;5.076;2023-01-31T06:51:17;102212.38;;;5.57;68.93
64158;BME280;50449;51.528;5.076;2023-01-31T06:53:42;102199.97;;;5.56;69.10
64158;BME280;50449;51.528;5.076;2023-01-31T06:56:08;102208.88;;;5.57;68.93
64158;BME280;50449;51.528;5.076;2023-01-31T06:58:34;102215.22;;;5.56;68.85
64158;BME280;50449;51.528;5.076;2023-01-31T07:01:10;102216.03;;;5.56;68.96
64158;BME280;50449;51.528;5.076;2023-01-31T07:03:36;102216.03;;;5.56;68.98
64158;BME280;50449;51.528;5.076;2023-01-31T07:06:03;102214.22;;;5.57;69.03
64158;BME280;50449;51.528;5.076;2023-01-31T07:08:29;102210.69;;;5.56;69.08
64158;BME280;50449;51.528;5.076;2023-01-31T07:10:55;102212.53;;;5.56;69.16
64158;BME280;50449;51.528;5.076;2023-01-31T07:13:20;102206.34;;;5.55;68.93
64158;BME280;50449;51.528;5.076;2023-01-31T07:15:46;102206.34;;;5.55;69.21
64158;BME280;50449;51.528;5.076;2023-01-31T07:18:11;102202.84;;;5.55;69.51
64158;BME280;50449;51.528;5.076;2023-01-31T07:20:41;102210.88;;;5.55;69.15
64158;BME280;50449;51.528;5.076;2023-01-31T07:23:06;102201.16;;;5.54;69.16
64158;BME280;50449;51.528;5.076;2023-01-31T07:25:33;102197.47;;;5.55;69.29
64158;BME280;50449;51.528;5.076;2023-01-31T07:27:59;102188.56;;;5.54;69.59
64158;BME280;50449;51.528;5.076;2023-01-31T07:30:25;102202.84;;;5.55;69.58
64158;BME280;50449;51.528;5.076;2023-01-31T07:32:51;102196.63;;;5.54;69.44
64158;BME280;50449;51.528;5.076;2023-01-31T07:35:17;102197.47;;;5.55;69.13
64158;BME280;50449;51.528;5.076;2023-01-31T07:37:43;102193.94;;;5.54;69.48
64158;BME280;50449;51.528;5.076;2023-01-31T07:40:11;102182.38;;;5.54;69.22
64158;BME280;50449;51.528;5.076;2023-01-31T07:42:37;102180.53;;;5.54;69.59
64158;BME280;50449;51.528;5.076;2023-01-31T07:45:04;102188.56;;;5.54;69.17
64158;BME280;50449;51.528;5.076;2023-01-31T07:47:29;102182.38;;;5.54;69.27
64158;BME280;50449;51.528;5.076;2023-01-31T07:49:54;102175.16;;;5.54;69.31
64158;BME280;50449;51.528;5.076;2023-01-31T07:52:20;102172.50;;;5.54;69.38
64158;BME280;50449;51.528;5.076;2023-01-31T07:54:45;102177.03;;;5.54;69.51
64158;BME280;50449;51.528;5.076;2023-01-31T07:57:11;102169.81;;;5.54;69.61
64158;BME280;50449;51.528;5.076;2023-01-31T07:59:37;102167.13;;;5.54;69.28
64158;BME280;50449;51.528;5.076;2023-01-31T08:02:02;102162.63;;;5.55;69.63
64158;BME280;50449;51.528;5.076;2023-01-31T08:04:46;102157.44;;;5.53;69.21
64158;BME280;50449;51.528;5.076;2023-01-31T08:07:12;102158.25;;;5.54;69.41
64158;BME280;50449;51.528;5.076;2023-01-31T08:09:37;102158.25;;;5.54;69.62
64158;BME280;50449;51.528;5.076;2023-01-31T08:12:04;102162.78;;;5.53;69.50
64158;BME280;50449;51.528;5.076;2023-01-31T08:14:29;102166.31;;;5.54;69.51
64158;BME280;50449;51.528;5.076;2023-01-31T08:16:55;102159.09;;;5.54;69.14
64158;BME280;50449;51.528;5.076;2023-01-31T08:19:21;102155.59;;;5.54;69.35
64158;BME280;50449;51.528;5.076;2023-01-31T08:21:48;102162.78;;;5.53;69.40
64158;BME280;50449;51.528;5.076;2023-01-31T08:24:14;102159.94;;;5.55;69.38
64158;BME280;50449;51.528;5.076;2023-01-31T08:26:41;102151.03;;;5.54;69.40
64158;BME280;50449;51.528;5.076;2023-01-31T08:29:07;102137.66;;;5.54;69.32
64158;BME280;50449;51.528;5.076;2023-01-31T08:31:32;102134.97;;;5.54;69.62
64158;BME280;50449;51.528;5.076;2023-01-31T08:33:58;102127.78;;;5.55;69.18
64158;BME280;50449;51.528;5.076;2023-01-31T08:36:25;102122.44;;;5.55;69.61
64158;BME280;50449;51.528;5.076;2023-01-31T08:38:52;102130.47;;;5.55;69.37
64158;BME280;50449;51.528;5.076;2023-01-31T08:41:20;102111.72;;;5.55;69.47
64158;BME280;50449;51.528;5.076;2023-01-31T08:43:46;102131.28;;;5.55;69.13
64158;BME280;50449;51.528;5.076;2023-01-31T08:46:13;102111.72;;;5.55;69.57
64158;BME280;50449;51.528;5.076;2023-01-31T08:48:39;102110.69;;;5.56;69.45
64158;BME280;50449;51.528;5.076;2023-01-31T08:51:07;102116.03;;;5.56;69.48
64158;BME280;50449;51.528;5.076;2023-01-31T08:53:33;102114.38;;;5.55;69.32
64158;BME280;50449;51.528;5.076;2023-01-31T08:56:02;102111.50;;;5.56;69.36
64158;BME280;50449;51.528;5.076;2023-01-31T08:58:30;102109.69;;;5.57;69.33
64158;BME280;50449;51.528;5.076;2023-01-31T09:01:07;102109.69;;;5.57;69.78
64158;BME280;50449;51.528;5.076;2023-01-31T09:03:33;102112.38;;;5.57;69.61
64158;BME280;50449;51.528;5.076;2023-01-31T09:06:00;102108.84;;;5.56;69.46
64158;BME280;50449;51.528;5.076;2023-01-31T09:08:26;102101.66;;;5.57;69.80
64158;BME280;50449;51.528;5.076;2023-01-31T09:10:52;102112.19;;;5.58;69.51
64158;BME280;50449;51.528;5.076;2023-01-31T09:13:18;102102.47;;;5.57;69.46
64158;BME280;50449;51.528;5.076;2023-01-31T09:15:44;102099.78;;;5.57;69.87
64158;BME280;50449;51.528;5.076;2023-01-31T09:18:09;102098.78;;;5.58;69.63
64158;BME280;50449;51.528;5.076;2023-01-31T09:20:34;102097.78;;;5.59;69.81
64158;BME280;50449;51.528;5.076;2023-01-31T09:23:00;102099.59;;;5.59;69.76
64158;BME280;50449;51.528;5.076;2023-01-31T09:25:25;102094.25;;;5.59;69.86
64158;BME280;50449;51.528;5.076;2023-01-31T09:27:51;102085.38;;;5.58;69.62
64158;BME280;50449;51.528;5.076;2023-01-31T09:30:17;102093.41;;;5.58;69.77
64158;BME280;50449;51.528;5.076;2023-01-31T09:32:43;102088.88;;;5.59;69.80
64158;BME280;50449;51.528;5.076;2023-01-31T09:35:10;102088.72;;;5.60;69.65
64158;BME280;50449;51.528;5.076;2023-01-31T09:37:35;102097.59;;;5.61;69.65
64158;BME280;50449;51.528;5.076;2023-01-31T09:40:03;102101.09;;;5.61;69.89
64158;BME280;50449;51.528;5.076;2023-01-31T09:42:39;102092.88;;;5.63;69.76
64158;BME280;50449;51.528;5.076;2023-01-31T09:45:10;102090.22;;;5.63;69.74
64158;BME280;50449;51.528;5.076;2023-01-31T09:50:06;102103.44;;;5.64;69.58
64158;BME280;50449;51.528;5.076;2023-01-31T09:52:37;102101.41;;;5.67;70.03
64158;BME280;50449;51.528;5.076;2023-01-31T09:55:03;102092.53;;;5.66;69.68
64158;BME280;50449;51.528;5.076;2023-01-31T09:57:40;102097.88;;;5.66;69.90
64158;BME280;50449;51.528;5.076;2023-01-31T10:00:31;102101.22;;;5.68;69.90
64158;BME280;50449;51.528;5.076;2023-01-31T10:06:23;102096.69;;;5.69;70.04
64158;BME280;50449;51.528;5.076;2023-01-31T10:08:50;102087.66;;;5.70;70.04
64158;BME280;50449;51.528;5.076;2023-01-31T10:13:56;102072.22;;;5.72;70.06
64158;BME280;50449;51.528;5.076;2023-01-31T10:16:30;102062.34;;;5.72;69.90
64158;BME280;50449;51.528;5.076;2023-01-31T10:19:05;102051.44;;;5.74;69.79
64158;BME280;50449;51.528;5.076;2023-01-31T10:21:37;102061.97;;;5.75;70.17
64158;BME280;50449;51.528;5.076;2023-01-31T10:26:39;102052.09;;;5.76;70.08
64158;BME280;50449;51.528;5.076;2023-01-31T10:29:17;102057.28;;;5.77;70.02
64158;BME280;50449;51.528;5.076;2023-01-31T10:31:51;102074.19;;;5.78;70.32
64158;BME280;50449;51.528;5.076;2023-01-31T10:34:44;102080.38;;;5.78;70.28
64158;BME280;50449;51.528;5.076;2023-01-31T10:37:14;102081.22;;;5.79;69.94
64158;BME280;50449;51.528;5.076;2023-01-31T10:39:49;102083.72;;;5.80;70.09
64158;BME280;50449;51.528;5.076;2023-01-31T10:42:28;102066.63;;;5.81;70.08
64158;BME280;50449;51.528;5.076;2023-01-31T10:45:09;102064.44;;;5.85;70.46
64158;BME280;50449;51.528;5.076;2023-01-31T10:47:51;102060.06;;;5.84;70.40
64158;BME280;50449;51.528;5.076;2023-01-31T10:55:54;102065.72;;;5.89;70.28
64158;BME280;50449;51.528;5.076;2023-01-31T10:58:23;102061.22;;;5.90;70.39
64158;BME280;50449;51.528;5.076;2023-01-31T11:00:49;102052.97;;;5.91;70.22
64158;BME280;50449;51.528;5.076;2023-01-31T11:03:16;102059.00;;;5.93;70.31
64158;BME280;50449;51.528;5.076;2023-01-31T11:05:53;102065.88;;;5.96;70.28
64158;BME280;50449;51.528;5.076;2023-01-31T11:08:40;102045.09;;;5.98;70.34
64158;BME280;50449;51.528;5.076;2023-01-31T11:11:10;102045.75;;;6.00;70.06
64158;BME280;50449;51.528;5.076;2023-01-31T11:13:36;102041.22;;;6.00;70.32
64158;BME280;50449;51.528;5.076;2023-01-31T11:16:03;102027.59;;;6.02;70.20
64158;BME280;50449;51.528;5.076;2023-01-31T11:18:35;102026.59;;;6.03;70.41
64158;BME280;50449;51.528;5.076;2023-01-31T11:21:02;102019.38;;;6.03;70.49
64158;BME280;50449;51.528;5.076;2023-01-31T11:23:30;102014.84;;;6.04;70.57
64158;BME280;50449;51.528;5.076;2023-01-31T11:25:57;102014.69;;;6.05;70.48
64158;BME280;50449;51.528;5.076;2023-01-31T11:28:31;102022.34;;;6.09;70.48
64158;BME280;50449;51.528;5.076;2023-01-31T11:30:58;102015.97;;;6.10;70.28
64158;BME280;50449;51.528;5.076;2023-01-31T11:33:44;102022.81;;;6.12;70.44
64158;BME280;50449;51.528;5.076;2023-01-31T11:36:18;102026.16;;;6.14;70.29
64158;BME280;50449;51.528;5.076;2023-01-31T11:38:51;102016.06;;;6.16;70.22
64158;BME280;50449;51.528;5.076;2023-01-31T11:41:34;102020.25;;;6.19;70.30
64158;BME280;50449;51.528;5.076;2023-01-31T11:44:20;102028.13;;;6.20;70.50
64158;BME280;50449;51.528;5.076;2023-01-31T11:46:51;102027.09;;;6.21;70.12
64158;BME280;50449;51.528;5.076;2023-01-31T11:49:41;102015.16;;;6.24;70.34
64158;BME280;50449;51.528;5.076;2023-01-31T11:52:13;102009.63;;;6.25;70.19
64158;BME280;50449;51.528;5.076;2023-01-31T11:54:44;102012.13;;;6.27;70.64
64158;BME280;50449;51.528;5.076;2023-01-31T11:57:16;102018.13;;;6.29;70.39
64158;BME280;50449;51.528;5.076;2023-01-31T11:59:42;102020.81;;;6.29;70.45
64158;BME280;50449;51.528;5.076;2023-01-31T12:04:49;102014.25;;;6.32;70.78
64158;BME280;50449;51.528;5.076;2023-01-31T12:07:27;102023.78;;;6.34;70.71
64158;BME280;50449;51.528;5.076;2023-01-31T12:09:55;102019.06;;;6.36;70.73
64158;BME280;50449;51.528;5.076;2023-01-31T12:12:33;102031.47;;;6.37;70.59
64158;BME280;50449;51.528;5.076;2023-01-31T12:15:01;102033.97;;;6.39;70.62
64158;BME280;50449;51.528;5.076;2023-01-31T12:17:35;102032.78;;;6.41;70.81
64158;BME280;50449;51.528;5.076;2023-01-31T12:22:39;102021.66;;;6.44;70.88
64158;BME280;50449;51.528;5.076;2023-01-31T12:25:27;102024.19;;;6.46;71.08
64158;BME280;50449;51.528;5.076;2023-01-31T12:30:55;102023.97;;;6.47;70.83
64158;BME280;50449;51.528;5.076;2023-01-31T12:36:15;102016.41;;;6.51;70.92
64158;BME280;50449;51.528;5.076;2023-01-31T12:41:39;102020.56;;;6.54;71.36
64158;BME280;50449;51.528;5.076;2023-01-31T12:47:29;102010.13;;;6.59;71.39
64158;BME280;50449;51.528;5.076;2023-01-31T12:53:43;102004.56;;;6.60;71.25
64158;BME280;50449;51.528;5.076;2023-01-31T12:59:04;102012.41;;;6.62;71.21
64158;BME280;50449;51.528;5.076;2023-01-31T13:01:39;101999.66;;;6.64;71.54
64158;BME280;50449;51.528;5.076;2023-01-31T13:07:47;101987.53;;;6.68;71.29
64158;BME280;50449;51.528;5.076;2023-01-31T13:10:35;101982.78;;;6.70;71.15
64158;BME280;50449;51.528;5.076;2023-01-31T13:13:04;101977.41;;;6.70;71.57
64158;BME280;50449;51.528;5.076;2023-01-31T13:15:46;101983.44;;;6.72;71.44
64158;BME280;50449;51.528;5.076;2023-01-31T13:18:13;101985.94;;;6.74;71.42
64158;BME280;50449;51.528;5.076;2023-01-31T13:20:47;101985.56;;;6.77;71.33
64158;BME280;50449;51.528;5.076;2023-01-31T13:23:32;101992.41;;;6.79;71.67
64158;BME280;50449;51.528;5.076;2023-01-31T13:26:10;102002.13;;;6.80;71.29
64158;BME280;50449;51.528;5.076;2023-01-31T13:28:56;101993.91;;;6.82;71.25
64158;BME280;50449;51.528;5.076;2023-01-31T13:31:30;101988.13;;;6.85;71.54
64158;BME280;50449;51.528;5.076;2023-01-31T13:34:03;101989.81;;;6.86;71.23
64158;BME280;50449;51.528;5.076;2023-01-31T13:36:42;101978.88;;;6.87;71.56
64158;BME280;50449;51.528;5.076;2023-01-31T13:39:45;101965.28;;;6.89;71.49
64158;BME280;50449;51.528;5.076;2023-01-31T13:42:14;101964.22;;;6.90;71.21
64158;BME280;50449;51.528;5.076;2023-01-31T13:44:41;101957.84;;;6.91;71.38
64158;BME280;50449;51.528;5.076;2023-01-31T13:54:51;101970.53;;;6.97;71.31
64158;BME280;50449;51.528;5.076;2023-01-31T13:57:28;101973.03;;;6.99;71.53
64158;BME280;50449;51.528;5.076;2023-01-31T14:00:04;101982.56;;;7.01;71.51
64158;BME280;50449;51.528;5.076;2023-01-31T14:02:31;101985.91;;;7.03;71.58
64158;BME280;50449;51.528;5.076;2023-01-31T14:05:06;101981.34;;;7.04;71.42
64158;BME280;50449;51.528;5.076;2023-01-31T14:11:00;101972.91;;;7.07;71.33
64158;BME280;50449;51.528;5.076;2023-01-31T14:15:52;101984.09;;;7.10;71.50
64158;BME280;50449;51.528;5.076;2023-01-31T14:18:38;101982.88;;;7.13;71.81
64158;BME280;50449;51.528;5.076;2023-01-31T14:23:56;101998.66;;;7.16;71.57
64158;BME280;50449;51.528;5.076;2023-01-31T14:29:17;102013.75;;;7.17;71.71
64158;BME280;50449;51.528;5.076;2023-01-31T14:31:45;102016.25;;;7.19;71.67
64158;BME280;50449;51.528;5.076;2023-01-31T14:39:54;102026.06;;;7.26;71.96
64158;BME280;50449;51.528;5.076;2023-01-31T14:45:40;102015.31;;;7.26;71.87
64158;BME280;50449;51.528;5.076;2023-01-31T14:48:40;102022.16;;;7.29;71.66
64158;BME280;50449;51.528;5.076;2023-01-31T15:05:38;102039.00;;;7.37;71.91
64158;BME280;50449;51.528;5.076;2023-01-31T15:11:10;102048.34;;;7.42;71.95
64158;BME280;50449;51.528;5.076;2023-01-31T15:13:46;102046.50;;;7.42;71.82
64158;BME280;50449;51.528;5.076;2023-01-31T15:16:33;102052.69;;;7.43;71.53
64158;BME280;50449;51.528;5.076;2023-01-31T15:21:38;102051.31;;;7.47;71.82
64158;BME280;50449;51.528;5.076;2023-01-31T15:24:19;102053.78;;;7.48;71.95
64158;BME280;50449;51.528;5.076;2023-01-31T15:26:49;102066.00;;;7.51;71.94
64158;BME280;50449;51.528;5.076;2023-01-31T15:29:21;102059.63;;;7.52;71.86